createdAt,value
2018-12-08T00:00:10.328Z,79.20
2018-12-08T00:01:15.984Z,79.58
2018-12-08T00:02:21.618Z,79.82
2018-12-08T00:03:27.265Z,80.35
2018-12-08T00:04:32.921Z,80.31
2018-12-08T00:05:38.509Z,80.76
2018-12-08T00:06:44.119Z,80.60
2018-12-08T00:07:49.862Z,81.02
2018-12-08T00:08:55.409Z,81.97
2018-12-08T00:10:01.093Z,82.19
2018-12-08T00:11:06.733Z,82.08
2018-12-08T00:12:12.345Z,82.42
2018-12-08T00:13:17.940Z,82.89
2018-12-08T00:14:23.551Z,82.44
2018-12-08T00:15:29.161Z,82.25
2018-12-08T00:16:34.764Z,82.50
2018-12-08T00:17:40.367Z,82.47
2018-12-08T00:18:45.990Z,81.92
2018-12-08T00:19:51.602Z,82.65
2018-12-08T00:20:57.238Z,82.50
2018-12-08T00:22:02.813Z,82.86
2018-12-08T00:23:08.496Z,82.72
2018-12-08T00:24:14.136Z,83.08
2018-12-08T00:25:19.711Z,82.61
2018-12-08T00:26:25.313Z,83.10
2018-12-08T00:27:30.947Z,83.17
2018-12-08T00:28:36.562Z,83.57
2018-12-08T00:29:42.168Z,83.68
2018-12-08T00:30:58.714Z,84.01
2018-12-08T00:32:05.222Z,84.13
2018-12-08T00:33:10.828Z,84.44
2018-12-08T00:34:16.455Z,83.97
2018-12-08T00:35:22.128Z,84.04
2018-12-08T00:36:27.744Z,83.86
2018-12-08T00:37:33.340Z,83.58
2018-12-08T00:38:38.943Z,84.96
2018-12-08T00:39:44.589Z,84.04
2018-12-08T00:40:50.262Z,83.56
2018-12-08T00:41:55.817Z,83.76
2018-12-08T00:43:01.416Z,83.83
2018-12-08T00:44:07.017Z,84.30
2018-12-08T00:45:12.588Z,83.81
2018-12-08T00:46:18.201Z,83.93
2018-12-08T00:47:23.840Z,83.44
2018-12-08T00:48:29.482Z,83.62
2018-12-08T00:49:35.137Z,82.44
2018-12-08T00:50:40.755Z,82.14
2018-12-08T00:51:46.340Z,81.77
2018-12-08T00:52:51.766Z,81.26
2018-12-08T00:53:57.136Z,80.85
2018-12-08T00:55:02.768Z,80.77
2018-12-08T00:56:08.369Z,81.48
2018-12-08T00:57:13.996Z,80.89
2018-12-08T00:58:19.573Z,81.12
2018-12-08T00:59:25.339Z,81.03
2018-12-08T01:00:30.806Z,81.15
2018-12-08T01:01:36.421Z,81.45
2018-12-08T01:02:42.617Z,81.60
2018-12-08T01:03:49.449Z,81.58
2018-12-08T01:04:55.061Z,81.41
2018-12-08T01:06:00.671Z,81.49
2018-12-08T01:07:06.289Z,81.98
2018-12-08T01:08:11.878Z,82.16
2018-12-08T01:09:17.155Z,82.18
2018-12-08T01:10:23.704Z,82.80
2018-12-08T01:11:29.313Z,83.04
2018-12-08T01:12:34.640Z,82.24
2018-12-08T01:13:40.240Z,82.92
2018-12-08T01:14:45.489Z,81.99
2018-12-08T01:15:51.110Z,82.56
2018-12-08T01:16:56.724Z,83.17
2018-12-08T01:18:02.338Z,83.10
2018-12-08T01:19:07.923Z,83.53
2018-12-08T01:20:13.163Z,82.65
2018-12-08T01:21:18.773Z,83.22
2018-12-08T01:22:24.343Z,83.20
2018-12-08T01:23:29.962Z,83.29
2018-12-08T01:24:35.579Z,83.27
2018-12-08T01:25:41.161Z,82.96
2018-12-08T01:26:46.777Z,83.19
2018-12-08T01:27:52.415Z,83.16
2018-12-08T01:28:57.994Z,83.04
2018-12-08T01:30:03.258Z,83.49
2018-12-08T01:31:08.860Z,83.98
2018-12-08T01:32:14.470Z,83.97
2018-12-08T01:33:20.075Z,83.69
2018-12-08T01:34:25.675Z,83.81
2018-12-08T01:35:31.302Z,84.29
2018-12-08T01:36:36.920Z,85.06
2018-12-08T01:37:42.538Z,84.98
2018-12-08T01:38:48.143Z,85.82
2018-12-08T01:39:53.792Z,85.20
2018-12-08T01:40:59.401Z,85.84
2018-12-08T01:42:04.691Z,86.00
2018-12-08T01:43:10.278Z,86.13
2018-12-08T01:44:16.187Z,85.95
2018-12-08T01:45:21.823Z,85.87
2018-12-08T01:46:27.391Z,87.19
2018-12-08T01:47:33.024Z,87.69
2018-12-08T01:48:38.363Z,88.57
2018-12-08T01:49:43.975Z,88.76
2018-12-08T01:50:49.200Z,88.98
2018-12-08T01:51:54.799Z,90.04
2018-12-08T01:53:00.444Z,90.28
2018-12-08T01:54:05.706Z,90.50
2018-12-08T01:55:11.304Z,90.36
2018-12-08T01:56:16.892Z,89.96
2018-12-08T01:57:22.533Z,89.71
2018-12-08T01:58:28.162Z,90.12
2018-12-08T01:59:33.800Z,90.63
2018-12-08T02:00:39.416Z,90.39
2018-12-08T02:01:43.994Z,90.61
2018-12-08T02:02:48.575Z,90.54
2018-12-08T02:03:53.172Z,89.94
2018-12-08T02:04:57.804Z,89.94
2018-12-08T02:06:02.384Z,90.44
2018-12-08T02:07:06.968Z,90.55
2018-12-08T02:08:11.545Z,90.52
2018-12-08T02:09:16.158Z,90.89
2018-12-08T02:10:21.784Z,90.78
2018-12-08T02:11:27.376Z,91.05
2018-12-08T02:12:32.975Z,92.29
2018-12-08T02:13:38.585Z,92.85
2018-12-08T02:14:44.180Z,93.05
2018-12-08T02:15:49.804Z,92.42
2018-12-08T02:16:55.427Z,92.13
2018-12-08T02:18:01.059Z,91.53
2018-12-08T02:19:06.673Z,91.81
2018-12-08T02:20:11.925Z,91.70
2018-12-08T02:21:17.502Z,91.98
2018-12-08T02:22:23.082Z,91.50
2018-12-08T02:23:28.706Z,90.45
2018-12-08T02:24:34.419Z,89.59
2018-12-08T02:25:40.016Z,89.73
2018-12-08T02:26:46.226Z,89.75
2018-12-08T02:27:52.332Z,89.47
2018-12-08T02:28:57.936Z,89.18
2018-12-08T02:30:03.173Z,89.46
2018-12-08T02:31:09.853Z,89.70
2018-12-08T02:32:15.113Z,89.55
2018-12-08T02:33:20.755Z,89.84
2018-12-08T02:34:26.367Z,90.05
2018-12-08T02:35:31.985Z,89.87
2018-12-08T02:36:37.579Z,89.89
2018-12-08T02:37:44.091Z,89.67
2018-12-08T02:38:49.701Z,89.32
2018-12-08T02:39:56.218Z,89.23
2018-12-08T02:41:01.828Z,89.23
2018-12-08T02:42:07.433Z,89.73
2018-12-08T02:43:13.039Z,89.63
2018-12-08T02:44:18.318Z,89.21
2018-12-08T02:45:23.916Z,89.12
2018-12-08T02:46:29.754Z,89.19
2018-12-08T02:47:35.348Z,89.45
2018-12-08T02:48:41.041Z,89.38
2018-12-08T02:49:46.668Z,89.12
2018-12-08T02:50:52.332Z,89.02
2018-12-08T02:51:57.704Z,89.39
2018-12-08T02:53:03.296Z,89.29
2018-12-08T02:54:08.922Z,89.14
2018-12-08T02:55:14.569Z,88.98
2018-12-08T02:56:20.205Z,89.25
2018-12-08T02:57:25.854Z,89.84
2018-12-08T02:58:31.481Z,89.56
2018-12-08T02:59:37.128Z,89.66
2018-12-08T03:00:42.746Z,88.85
2018-12-08T03:01:48.350Z,88.83
2018-12-08T03:02:53.928Z,88.87
2018-12-08T03:03:59.502Z,89.24
2018-12-08T03:05:04.413Z,88.59
2018-12-08T03:06:09.684Z,88.00
2018-12-08T03:07:15.259Z,88.02
2018-12-08T03:08:20.854Z,87.86
2018-12-08T03:09:26.441Z,87.75
2018-12-08T03:10:32.080Z,87.77
2018-12-08T03:11:37.765Z,87.40
2018-12-08T03:12:43.359Z,86.96
2018-12-08T03:13:49.004Z,87.22
2018-12-08T03:14:54.620Z,87.75
2018-12-08T03:16:00.328Z,88.42
2018-12-08T03:17:05.220Z,88.08
2018-12-08T03:18:10.821Z,87.93
2018-12-08T03:19:16.396Z,88.53
2018-12-08T03:20:22.007Z,88.06
2018-12-08T03:21:27.632Z,88.16
2018-12-08T03:22:33.001Z,88.82
2018-12-08T03:23:38.606Z,89.09
2018-12-08T03:24:44.210Z,89.22
2018-12-08T03:25:49.829Z,88.28
2018-12-08T03:26:55.439Z,88.34
2018-12-08T03:28:01.080Z,88.57
2018-12-08T03:29:06.739Z,88.22
2018-12-08T03:30:12.347Z,88.32
2018-12-08T03:31:17.967Z,87.62
2018-12-08T03:32:23.586Z,88.26
2018-12-08T03:33:29.187Z,88.92
2018-12-08T03:34:34.816Z,89.04
2018-12-08T03:35:40.439Z,88.80
2018-12-08T03:36:46.050Z,89.07
2018-12-08T03:37:51.665Z,88.92
2018-12-08T03:38:57.239Z,89.15
2018-12-08T03:40:02.885Z,89.03
2018-12-08T03:41:07.914Z,89.15
2018-12-08T03:42:13.506Z,89.24
2018-12-08T03:43:19.116Z,89.79
2018-12-08T03:44:25.801Z,89.70
2018-12-08T03:45:31.410Z,88.79
2018-12-08T03:46:37.038Z,88.21
2018-12-08T03:47:42.639Z,88.05
2018-12-08T03:48:48.251Z,88.36
2018-12-08T03:49:54.772Z,88.28
2018-12-08T03:51:00.428Z,88.39
2018-12-08T03:52:06.113Z,87.90
2018-12-08T03:53:11.754Z,88.31
2018-12-08T03:54:17.484Z,88.17
2018-12-08T03:55:23.105Z,87.82
2018-12-08T03:56:28.765Z,87.91
2018-12-08T03:57:34.408Z,87.95
2018-12-08T03:58:40.014Z,88.21
2018-12-08T03:59:45.616Z,88.75
2018-12-08T04:00:50.880Z,87.89
2018-12-08T04:01:56.458Z,88.00
2018-12-08T04:03:02.111Z,87.71
2018-12-08T04:04:07.397Z,87.67
2018-12-08T04:05:12.990Z,88.15
2018-12-08T04:06:18.642Z,88.70
2018-12-08T04:07:24.262Z,88.45
2018-12-08T04:08:29.869Z,88.47
2018-12-08T04:09:35.470Z,88.29
2018-12-08T04:10:41.107Z,87.99
2018-12-08T04:11:46.758Z,87.91
2018-12-08T04:12:52.371Z,87.79
2018-12-08T04:13:57.585Z,87.48
2018-12-08T04:15:03.197Z,87.68
2018-12-08T04:16:08.595Z,88.01
2018-12-08T04:17:14.233Z,87.48
2018-12-08T04:18:20.418Z,87.54
2018-12-08T04:19:26.022Z,87.52
2018-12-08T04:20:31.698Z,87.42
2018-12-08T04:21:37.375Z,88.28
2018-12-08T04:22:42.963Z,88.49
2018-12-08T04:23:48.553Z,88.06
2018-12-08T04:24:54.185Z,88.42
2018-12-08T04:25:59.829Z,88.86
2018-12-08T04:27:05.578Z,88.60
2018-12-08T04:28:11.091Z,88.39
2018-12-08T04:29:16.680Z,88.66
2018-12-08T04:30:22.315Z,88.12
2018-12-08T04:31:27.941Z,88.37
2018-12-08T04:32:33.550Z,88.01
2018-12-08T04:33:39.166Z,88.41
2018-12-08T04:34:44.769Z,88.21
2018-12-08T04:35:50.388Z,88.06
2018-12-08T04:36:56.016Z,88.40
2018-12-08T04:38:01.646Z,87.77
2018-12-08T04:39:06.597Z,87.52
2018-12-08T04:40:11.866Z,87.43
2018-12-08T04:41:17.579Z,87.58
2018-12-08T04:42:23.194Z,87.85
2018-12-08T04:43:28.801Z,87.47
2018-12-08T04:44:34.584Z,88.46
2018-12-08T04:45:40.096Z,88.12
2018-12-08T04:46:45.738Z,88.14
2018-12-08T04:47:51.324Z,88.37
2018-12-08T04:48:56.988Z,88.38
2018-12-08T04:50:02.601Z,88.42
2018-12-08T04:51:08.235Z,87.69
2018-12-08T04:52:13.845Z,87.69
2018-12-08T04:53:19.451Z,87.61
2018-12-08T04:54:25.080Z,87.52
2018-12-08T04:55:30.681Z,87.49
2018-12-08T04:56:36.311Z,87.95
2018-12-08T04:57:41.953Z,87.97
2018-12-08T04:58:47.572Z,87.34
2018-12-08T04:59:53.235Z,86.91
2018-12-08T05:00:58.902Z,87.37
2018-12-08T05:02:04.264Z,86.94
2018-12-08T05:03:09.525Z,86.62
2018-12-08T05:04:15.114Z,86.84
2018-12-08T05:05:20.714Z,87.36
2018-12-08T05:06:26.411Z,86.88
2018-12-08T05:07:32.027Z,86.32
2018-12-08T05:08:38.162Z,85.72
2018-12-08T05:09:45.037Z,85.63
2018-12-08T05:10:51.168Z,86.31
2018-12-08T05:11:56.787Z,86.85
2018-12-08T05:13:02.544Z,86.47
2018-12-08T05:14:08.186Z,86.01
2018-12-08T05:15:13.458Z,85.65
2018-12-08T05:16:19.767Z,86.34
2018-12-08T05:17:25.984Z,85.91
2018-12-08T05:18:31.629Z,86.13
2018-12-08T05:19:37.347Z,86.46
2018-12-08T05:20:43.010Z,86.24
2018-12-08T05:21:48.726Z,86.90
2018-12-08T05:22:55.876Z,86.60
2018-12-08T05:24:01.767Z,86.51
2018-12-08T05:25:06.774Z,86.26
2018-12-08T05:26:12.912Z,86.36
2018-12-08T05:27:18.540Z,86.24
2018-12-08T05:28:24.364Z,86.12
2018-12-08T05:29:29.976Z,86.99
2018-12-08T05:30:35.599Z,86.85
2018-12-08T05:31:41.773Z,86.60
2018-12-08T05:32:47.440Z,86.56
2018-12-08T05:33:53.061Z,86.92
2018-12-08T05:34:58.708Z,87.04
2018-12-08T05:36:04.018Z,87.25
2018-12-08T05:37:09.658Z,87.19
2018-12-08T05:38:15.244Z,87.49
2018-12-08T05:39:20.877Z,87.58
2018-12-08T05:40:26.495Z,88.04
2018-12-08T05:41:32.108Z,87.21
2018-12-08T05:42:37.500Z,87.40
2018-12-08T05:43:43.114Z,87.59
2018-12-08T05:44:48.775Z,88.02
2018-12-08T05:45:54.411Z,88.35
2018-12-08T05:47:00.069Z,88.95
2018-12-08T05:48:05.693Z,89.32
2018-12-08T05:49:11.291Z,88.96
2018-12-08T05:50:16.892Z,88.35
2018-12-08T05:51:22.531Z,88.14
2018-12-08T05:52:28.149Z,87.75
2018-12-08T05:53:33.788Z,88.42
2018-12-08T05:54:39.419Z,88.75
2018-12-08T05:55:45.031Z,88.71
2018-12-08T05:56:50.658Z,88.50
2018-12-08T05:57:56.428Z,88.64
2018-12-08T05:59:02.033Z,88.75
2018-12-08T06:00:06.732Z,88.90
2018-12-08T06:01:12.310Z,88.95
2018-12-08T06:02:17.957Z,89.16
2018-12-08T06:03:23.531Z,89.77
2018-12-08T06:04:29.190Z,90.29
2018-12-08T06:05:35.395Z,89.83
2018-12-08T06:06:41.512Z,90.36
2018-12-08T06:07:47.159Z,89.92
2018-12-08T06:08:52.797Z,90.20
2018-12-08T06:09:58.409Z,89.80
2018-12-08T06:11:04.031Z,89.84
2018-12-08T06:12:09.668Z,89.89
2018-12-08T06:13:15.287Z,89.56
2018-12-08T06:14:20.921Z,90.12
2018-12-08T06:15:26.560Z,89.58
2018-12-08T06:16:32.161Z,89.28
2018-12-08T06:17:38.415Z,89.12
2018-12-08T06:18:44.052Z,88.55
2018-12-08T06:19:49.704Z,88.43
2018-12-08T06:20:55.331Z,88.27
2018-12-08T06:22:01.027Z,88.00
2018-12-08T06:23:06.612Z,87.90
2018-12-08T06:24:12.208Z,88.11
2018-12-08T06:25:17.157Z,87.51
2018-12-08T06:26:22.785Z,87.52
2018-12-08T06:27:27.769Z,87.50
2018-12-08T06:28:33.444Z,87.42
2018-12-08T06:29:38.840Z,87.57
2018-12-08T06:30:44.462Z,87.87
2018-12-08T06:31:50.092Z,87.25
2018-12-08T06:32:55.733Z,86.75
2018-12-08T06:34:02.503Z,86.95
2018-12-08T06:35:12.932Z,87.02
2018-12-08T06:36:22.895Z,86.73
2018-12-08T06:37:32.259Z,87.44
2018-12-08T06:38:38.401Z,87.64
2018-12-08T06:39:43.952Z,87.83
2018-12-08T06:40:49.609Z,87.21
2018-12-08T06:41:55.229Z,86.83
2018-12-08T06:43:00.854Z,87.13
2018-12-08T06:44:06.516Z,87.09
2018-12-08T06:45:12.124Z,87.20
2018-12-08T06:46:17.725Z,86.96
2018-12-08T06:47:23.327Z,86.56
2018-12-08T06:48:28.900Z,86.58
2018-12-08T06:49:34.520Z,86.40
2018-12-08T06:50:40.144Z,86.37
2018-12-08T06:51:45.748Z,86.25
2018-12-08T06:52:51.380Z,86.69
2018-12-08T06:53:57.020Z,86.64
2018-12-08T06:55:02.337Z,87.07
2018-12-08T06:56:07.924Z,87.06
2018-12-08T06:57:13.544Z,87.70
2018-12-08T06:58:19.215Z,87.60
2018-12-08T06:59:24.811Z,87.54
2018-12-08T07:00:30.439Z,86.58
2018-12-08T07:01:36.024Z,86.89
2018-12-08T07:02:41.310Z,87.55
2018-12-08T07:03:46.948Z,87.19
2018-12-08T07:04:52.564Z,86.94
2018-12-08T07:05:58.140Z,86.42
2018-12-08T07:07:03.736Z,86.33
2018-12-08T07:08:09.984Z,86.02
2018-12-08T07:09:18.272Z,86.55
2018-12-08T07:10:25.891Z,87.08
2018-12-08T07:11:32.464Z,86.95
2018-12-08T07:12:39.042Z,86.58
2018-12-08T07:13:45.686Z,87.35
2018-12-08T07:14:52.446Z,87.09
2018-12-08T07:15:58.565Z,87.75
2018-12-08T07:17:04.233Z,86.81
2018-12-08T07:18:09.903Z,86.69
2018-12-08T07:19:16.679Z,86.83
2018-12-08T07:20:22.335Z,86.49
2018-12-08T07:21:27.644Z,86.46
2018-12-08T07:22:33.267Z,86.21
2018-12-08T07:23:38.911Z,86.10
2018-12-08T07:24:44.543Z,85.85
2018-12-08T07:25:50.199Z,85.40
2018-12-08T07:26:55.796Z,84.74
2018-12-08T07:28:01.401Z,85.04
2018-12-08T07:29:07.034Z,84.42
2018-12-08T07:30:12.327Z,83.66
2018-12-08T07:31:17.931Z,84.12
2018-12-08T07:32:23.553Z,84.34
2018-12-08T07:33:29.189Z,84.52
2018-12-08T07:34:34.787Z,85.02
2018-12-08T07:35:40.397Z,85.09
2018-12-08T07:36:46.373Z,84.74
2018-12-08T07:37:53.091Z,84.79
2018-12-08T07:38:59.273Z,83.72
2018-12-08T07:40:05.423Z,83.15
2018-12-08T07:41:12.492Z,83.08
2018-12-08T07:42:19.600Z,83.33
2018-12-08T07:43:27.165Z,82.58
2018-12-08T07:44:35.438Z,82.30
2018-12-08T07:45:41.677Z,82.25
2018-12-08T07:46:48.821Z,81.72
2018-12-08T07:47:55.573Z,82.15
2018-12-08T07:49:02.491Z,81.91
2018-12-08T07:50:09.335Z,81.38
2018-12-08T07:51:15.466Z,81.61
2018-12-08T07:52:21.795Z,80.61
2018-12-08T07:53:28.403Z,80.78
2018-12-08T07:54:34.572Z,80.42
2018-12-08T07:55:42.954Z,80.58
2018-12-08T07:56:54.527Z,80.78
2018-12-08T07:58:01.554Z,80.07
2018-12-08T07:59:08.189Z,80.15
2018-12-08T08:00:13.403Z,80.08
2018-12-08T08:01:21.287Z,79.64
2018-12-08T08:02:27.611Z,80.21
2018-12-08T08:03:33.439Z,80.28
2018-12-08T08:04:40.463Z,79.71
2018-12-08T08:05:48.097Z,80.83
2018-12-08T08:06:53.735Z,79.78
2018-12-08T08:08:00.861Z,79.21
2018-12-08T08:09:07.752Z,79.80
2018-12-08T08:10:14.156Z,79.85
2018-12-08T08:11:23.858Z,79.83
2018-12-08T08:12:32.734Z,79.43
2018-12-08T08:13:39.023Z,79.27
2018-12-08T08:14:46.300Z,79.32
2018-12-08T08:15:53.495Z,79.56
2018-12-08T08:17:00.410Z,79.34
2018-12-08T08:18:07.027Z,78.70
2018-12-08T08:19:13.501Z,78.76
2018-12-08T08:20:19.493Z,79.69
2018-12-08T08:21:26.041Z,80.31
2018-12-08T08:22:32.238Z,80.39
2018-12-08T08:23:38.729Z,79.79
2018-12-08T08:24:45.388Z,80.09
2018-12-08T08:25:51.593Z,79.82
2018-12-08T08:26:58.455Z,79.83
2018-12-08T08:28:05.598Z,80.23
2018-12-08T08:29:12.652Z,79.85
2018-12-08T08:30:19.516Z,79.94
2018-12-08T08:31:25.924Z,79.99
2018-12-08T08:32:31.502Z,80.02
2018-12-08T08:33:37.159Z,79.78
2018-12-08T08:34:42.761Z,80.25
2018-12-08T08:35:48.397Z,80.72
2018-12-08T08:36:54.025Z,80.98
2018-12-08T08:37:59.634Z,80.95
2018-12-08T08:39:04.563Z,80.14
2018-12-08T08:40:09.469Z,79.93
2018-12-08T08:41:14.763Z,79.89
2018-12-08T08:42:20.366Z,79.85
2018-12-08T08:43:27.143Z,80.01
2018-12-08T08:44:33.442Z,80.09
2018-12-08T08:45:39.075Z,79.85
2018-12-08T08:46:44.685Z,80.34
2018-12-08T08:47:50.269Z,80.18
2018-12-08T08:48:55.931Z,79.37
2018-12-08T08:50:01.574Z,79.48
2018-12-08T08:51:07.718Z,79.91
2018-12-08T08:52:13.574Z,80.26
2018-12-08T08:53:19.183Z,79.95
2018-12-08T08:54:24.941Z,79.94
2018-12-08T08:55:30.649Z,79.77
2018-12-08T08:56:35.900Z,79.82
2018-12-08T08:57:41.495Z,79.63
2018-12-08T08:58:47.508Z,79.04
2018-12-08T08:59:53.375Z,78.80
2018-12-08T09:00:58.961Z,79.61
2018-12-08T09:02:04.580Z,79.53
2018-12-08T09:03:10.230Z,79.28
2018-12-08T09:04:15.868Z,78.69
2018-12-08T09:05:21.139Z,78.85
2018-12-08T09:06:27.725Z,79.33
2018-12-08T09:07:34.589Z,79.01
2018-12-08T09:08:41.390Z,79.18
2018-12-08T09:09:48.983Z,79.12
2018-12-08T09:10:56.384Z,79.17
2018-12-08T09:12:03.356Z,79.23
2018-12-08T09:13:11.632Z,79.30
2018-12-08T09:14:18.164Z,79.23
2018-12-08T09:15:24.950Z,79.31
2018-12-08T09:16:32.487Z,79.12
2018-12-08T09:17:38.599Z,79.25
2018-12-08T09:18:44.254Z,79.60
2018-12-08T09:19:49.872Z,79.01
2018-12-08T09:20:55.513Z,79.11
2018-12-08T09:22:01.641Z,78.88
2018-12-08T09:23:07.370Z,78.55
2018-12-08T09:24:13.104Z,79.25
2018-12-08T09:25:18.690Z,79.04
2018-12-08T09:26:24.347Z,79.45
2018-12-08T09:27:31.040Z,79.26
2018-12-08T09:28:36.676Z,78.92
2018-12-08T09:29:41.976Z,78.76
2018-12-08T09:30:47.638Z,79.15
2018-12-08T09:31:53.291Z,78.98
2018-12-08T09:32:58.942Z,79.03
2018-12-08T09:34:04.281Z,79.37
2018-12-08T09:35:09.160Z,79.35
2018-12-08T09:36:14.752Z,79.27
2018-12-08T09:37:20.372Z,79.26
2018-12-08T09:38:26.031Z,79.60
2018-12-08T09:39:31.661Z,79.35
2018-12-08T09:40:37.304Z,79.16
2018-12-08T09:41:43.563Z,79.24
2018-12-08T09:42:49.399Z,78.97
2018-12-08T09:43:55.053Z,78.97
2018-12-08T09:45:00.970Z,79.13
2018-12-08T09:46:07.330Z,78.70
2018-12-08T09:47:12.934Z,79.49
2018-12-08T09:48:18.857Z,80.20
2018-12-08T09:49:24.988Z,79.14
2018-12-08T09:50:30.577Z,79.40
2018-12-08T09:51:35.781Z,79.08
2018-12-08T09:52:41.800Z,79.21
2018-12-08T09:53:47.693Z,79.16
2018-12-08T09:54:53.337Z,79.42
2018-12-08T09:55:58.971Z,79.04
2018-12-08T09:57:04.535Z,79.01
2018-12-08T09:58:09.451Z,78.83
2018-12-08T09:59:15.799Z,79.09
2018-12-08T10:00:22.443Z,78.93
2018-12-08T10:01:28.081Z,79.20
2018-12-08T10:02:33.790Z,79.16
2018-12-08T10:03:39.759Z,79.04
2018-12-08T10:04:45.860Z,79.26
2018-12-08T10:05:51.527Z,79.96
2018-12-08T10:06:57.114Z,80.13
2018-12-08T10:08:02.800Z,79.42
2018-12-08T10:09:07.724Z,79.19
2018-12-08T10:10:12.976Z,79.18
2018-12-08T10:11:18.548Z,78.91
2018-12-08T10:12:24.164Z,79.25
2018-12-08T10:13:29.792Z,78.74
2018-12-08T10:14:35.473Z,78.61
2018-12-08T10:15:41.081Z,78.72
2018-12-08T10:16:46.669Z,77.79
2018-12-08T10:17:52.291Z,78.34
2018-12-08T10:18:58.182Z,78.32
2018-12-08T10:20:03.802Z,78.26
2018-12-08T10:21:09.091Z,78.39
2018-12-08T10:22:14.760Z,78.48
2018-12-08T10:23:20.365Z,78.53
2018-12-08T10:24:25.989Z,78.84
2018-12-08T10:25:31.581Z,79.02
2018-12-08T10:26:37.245Z,78.92
2018-12-08T10:27:42.871Z,78.84
2018-12-08T10:28:48.479Z,79.43
2018-12-08T10:29:54.104Z,78.83
2018-12-08T10:30:59.718Z,78.84
2018-12-08T10:32:05.059Z,78.98
2018-12-08T10:33:10.495Z,79.54
2018-12-08T10:34:16.109Z,79.85
2018-12-08T10:35:21.725Z,79.13
2018-12-08T10:36:27.305Z,79.28
2018-12-08T10:37:32.925Z,79.82
2018-12-08T10:38:38.500Z,79.21
2018-12-08T10:39:44.678Z,79.38
2018-12-08T10:40:49.796Z,78.86
2018-12-08T10:41:55.400Z,78.88
2018-12-08T10:43:00.990Z,78.88
2018-12-08T10:44:06.265Z,78.49
2018-12-08T10:45:11.509Z,78.34
2018-12-08T10:46:17.115Z,78.47
2018-12-08T10:47:22.792Z,78.75
2018-12-08T10:48:28.411Z,78.18
2018-12-08T10:49:34.037Z,78.49
2018-12-08T10:50:39.708Z,78.65
2018-12-08T10:51:45.314Z,78.39
2018-12-08T10:52:50.945Z,78.26
2018-12-08T10:53:56.569Z,78.23
2018-12-08T10:55:02.200Z,78.23
2018-12-08T10:56:07.836Z,78.61
2018-12-08T10:57:13.472Z,78.11
2018-12-08T10:58:19.057Z,78.02
2018-12-08T10:59:24.667Z,78.54
2018-12-08T11:00:35.564Z,78.72
2018-12-08T11:01:46.483Z,78.82
2018-12-08T11:02:54.511Z,78.20
2018-12-08T11:04:00.102Z,78.35
2018-12-08T11:05:05.033Z,78.98
2018-12-08T11:06:10.641Z,78.46
2018-12-08T11:07:16.241Z,78.56
2018-12-08T11:08:21.913Z,78.31
2018-12-08T11:09:27.569Z,78.23
2018-12-08T11:10:33.257Z,77.78
2018-12-08T11:11:38.519Z,77.41
2018-12-08T11:12:43.833Z,76.83
2018-12-08T11:13:49.439Z,76.76
2018-12-08T11:15:00.713Z,77.30
2018-12-08T11:16:00.835Z,77.25
2018-12-08T11:17:06.412Z,78.01
2018-12-08T11:18:12.025Z,77.11
2018-12-08T11:19:17.685Z,76.91
2018-12-08T11:20:23.296Z,76.71
2018-12-08T11:21:28.604Z,76.70
2018-12-08T11:22:34.274Z,77.02
2018-12-08T11:23:39.890Z,77.04
2018-12-08T11:24:45.484Z,76.86
2018-12-08T11:25:51.111Z,76.72
2018-12-08T11:26:56.769Z,76.56
2018-12-08T11:28:02.424Z,75.86
2018-12-08T11:29:08.045Z,75.69
2018-12-08T11:30:13.323Z,75.96
2018-12-08T11:31:18.940Z,76.04
2018-12-08T11:32:24.530Z,75.84
2018-12-08T11:33:29.430Z,75.32
2018-12-08T11:34:35.038Z,75.79
2018-12-08T11:35:40.644Z,76.08
2018-12-08T11:36:49.626Z,75.76
2018-12-08T11:37:51.912Z,76.11
2018-12-08T11:38:57.489Z,75.45
2018-12-08T11:40:03.391Z,74.97
2018-12-08T11:41:09.017Z,75.02
2018-12-08T11:42:14.643Z,75.28
2018-12-08T11:43:20.290Z,75.24
2018-12-08T11:44:25.636Z,75.55
2018-12-08T11:45:31.249Z,75.47
2018-12-08T11:46:36.856Z,75.27
2018-12-08T11:47:42.466Z,75.34
2018-12-08T11:48:48.069Z,75.44
2018-12-08T11:49:53.694Z,75.70
2018-12-08T11:50:59.304Z,75.77
2018-12-08T11:52:05.285Z,75.29
2018-12-08T11:53:11.181Z,75.82
2018-12-08T11:54:16.838Z,76.16
2018-12-08T11:55:29.982Z,76.01
2018-12-08T11:56:28.115Z,75.79
2018-12-08T11:57:33.721Z,75.61
2018-12-08T11:58:38.962Z,76.40
2018-12-08T11:59:44.585Z,75.92
2018-12-08T12:00:50.281Z,75.37
2018-12-08T12:01:55.881Z,76.03
2018-12-08T12:03:01.470Z,75.88
2018-12-08T12:04:07.110Z,76.29
2018-12-08T12:05:12.412Z,76.40
2018-12-08T12:06:17.695Z,76.05
2018-12-08T12:07:23.299Z,75.89
2018-12-08T12:08:28.904Z,75.85
2018-12-08T12:09:34.528Z,75.60
2018-12-08T12:10:40.153Z,75.98
2018-12-08T12:11:45.753Z,75.17
2018-12-08T12:12:51.362Z,75.26
2018-12-08T12:13:56.986Z,75.11
2018-12-08T12:15:02.277Z,75.20
2018-12-08T12:16:08.005Z,75.43
2018-12-08T12:17:13.613Z,76.43
2018-12-08T12:18:19.194Z,76.51
2018-12-08T12:19:24.810Z,76.08
2018-12-08T12:20:30.180Z,76.96
2018-12-08T12:21:35.831Z,76.53
2018-12-08T12:22:41.466Z,76.34
2018-12-08T12:23:47.077Z,77.03
2018-12-08T12:24:52.687Z,77.09
2018-12-08T12:25:58.312Z,77.25
2018-12-08T12:27:03.647Z,77.62
2018-12-08T12:28:11.068Z,77.35
2018-12-08T12:29:14.876Z,78.57
2018-12-08T12:30:20.505Z,77.85
2018-12-08T12:31:25.840Z,77.21
2018-12-08T12:32:33.524Z,77.86
2018-12-08T12:33:39.247Z,78.38
2018-12-08T12:34:44.876Z,78.17
2018-12-08T12:35:50.539Z,77.98
2018-12-08T12:36:56.158Z,78.03
2018-12-08T12:38:01.801Z,77.99
2018-12-08T12:39:07.425Z,79.13
2018-12-08T12:40:12.700Z,78.65
2018-12-08T12:41:18.373Z,78.62
2018-12-08T12:42:23.987Z,78.61
2018-12-08T12:43:29.604Z,78.40
2018-12-08T12:44:35.210Z,78.44
2018-12-08T12:45:40.810Z,78.81
2018-12-08T12:46:46.519Z,78.80
2018-12-08T12:47:52.120Z,78.55
2018-12-08T12:48:57.738Z,78.62
2018-12-08T12:50:02.997Z,78.79
2018-12-08T12:51:08.647Z,79.07
2018-12-08T12:52:14.305Z,78.60
2018-12-08T12:53:20.284Z,78.43
2018-12-08T12:54:25.906Z,78.12
2018-12-08T12:55:31.539Z,78.81
2018-12-08T12:56:36.814Z,78.78
2018-12-08T12:57:42.458Z,78.58
2018-12-08T12:58:48.205Z,78.72
2018-12-08T12:59:53.840Z,78.30
2018-12-08T13:00:59.454Z,78.64
2018-12-08T13:02:05.096Z,78.88
2018-12-08T13:03:10.708Z,79.11
2018-12-08T13:04:16.327Z,79.07
2018-12-08T13:05:21.999Z,78.42
2018-12-08T13:06:27.424Z,78.76
2018-12-08T13:07:33.384Z,78.35
2018-12-08T13:08:38.983Z,78.37
2018-12-08T13:09:44.217Z,78.44
2018-12-08T13:10:49.861Z,78.67
2018-12-08T13:11:55.260Z,78.32
2018-12-08T13:13:00.907Z,77.81
2018-12-08T13:14:06.482Z,77.86
2018-12-08T13:15:12.052Z,77.35
2018-12-08T13:16:17.307Z,77.66
2018-12-08T13:17:22.896Z,77.91
2018-12-08T13:18:28.504Z,77.74
2018-12-08T13:19:34.209Z,77.79
2018-12-08T13:20:39.812Z,78.50
2018-12-08T13:21:45.484Z,78.74
2018-12-08T13:22:51.089Z,78.80
2018-12-08T13:23:56.718Z,79.44
2018-12-08T13:25:20.496Z,79.66
2018-12-08T13:26:26.138Z,80.98
2018-12-08T13:27:31.925Z,82.24
2018-12-08T13:28:37.580Z,82.72
2018-12-08T13:29:43.208Z,84.29
2018-12-08T13:30:48.463Z,84.63
2018-12-08T13:31:54.330Z,86.35
2018-12-08T13:32:59.948Z,86.38
2018-12-08T13:34:16.501Z,85.77
2018-12-08T13:35:33.125Z,86.81
2018-12-08T13:36:38.786Z,88.07
2018-12-08T13:37:44.414Z,87.65
2018-12-08T13:38:50.012Z,87.24
2018-12-08T13:39:55.689Z,87.49
2018-12-08T13:41:01.561Z,87.66
2018-12-08T13:42:07.264Z,87.34
2018-12-08T13:43:12.926Z,87.43
2018-12-08T13:44:34.044Z,87.26
2018-12-08T13:45:39.645Z,87.73
2018-12-08T13:46:45.335Z,87.67
2018-12-08T13:47:50.943Z,88.00
2018-12-08T13:48:56.597Z,87.37
2018-12-08T13:50:02.255Z,87.88
2018-12-08T13:51:07.672Z,88.09
2018-12-08T13:52:13.622Z,87.47
2018-12-08T13:53:19.968Z,86.95
2018-12-08T13:54:36.800Z,87.04
2018-12-08T13:55:42.959Z,86.70
2018-12-08T13:56:48.872Z,86.89
2018-12-08T13:57:54.483Z,86.54
2018-12-08T13:59:00.097Z,86.33
2018-12-08T14:00:05.017Z,87.42
2018-12-08T14:01:10.654Z,87.22
2018-12-08T14:02:16.281Z,86.42
2018-12-08T14:03:21.909Z,86.44
2018-12-08T14:04:28.124Z,85.96
2018-12-08T14:05:33.766Z,85.63
2018-12-08T14:06:39.388Z,85.46
2018-12-08T14:07:45.216Z,85.95